sensor_id;sensor_type;location;lat;lon;timestamp;P1;P2;P0
56175;PMS5003;63065;51.082;17.016;2023-04-25T00:00:56;4;4;
56175;PMS5003;63065;51.082;17.016;2023-04-25T00:03:22;4;4;
56175;PMS5003;63065;51.082;17.016;2023-04-25T00:05:47;7;7;
56175;PMS5003;63065;51.082;17.016;2023-04-25T00:08:13;5;5;
56175;PMS5003;63065;51.082;17.016;2023-04-25T00:10:39;4;4;
56175;PMS5003;63065;51.082;17.016;2023-04-25T00:13:05;4;4;
56175;PMS5003;63065;51.082;17.016;2023-04-25T00:15:31;4;4;
56175;PMS5003;63065;51.082;17.016;2023-04-25T00:17:57;6;6;
56175;PMS5003;63065;51.082;17.016;2023-04-25T00:20:23;4;4;
56175;PMS5003;63065;51.082;17.016;2023-04-25T00:22:48;5;4;
56175;PMS5003;63065;51.082;17.016;2023-04-25T00:25:14;5;5;
56175;PMS5003;63065;51.082;17.016;2023-04-25T00:27:40;5;4;
56175;PMS5003;63065;51.082;17.016;2023-04-25T00:30:06;5;5;
56175;PMS5003;63065;51.082;17.016;2023-04-25T00:34:57;6;6;
56175;PMS5003;63065;51.082;17.016;2023-04-25T00:37:23;4;4;
56175;PMS5003;63065;51.082;17.016;2023-04-25T00:39:49;5;5;
56175;PMS5003;63065;51.082;17.016;2023-04-25T00:42:14;4;4;
56175;PMS5003;63065;51.082;17.016;2023-04-25T00:44:40;7;6;
56175;PMS5003;63065;51.082;17.016;2023-04-25T00:47:06;6;6;
56175;PMS5003;63065;51.082;17.016;2023-04-25T00:49:32;7;6;
56175;PMS5003;63065;51.082;17.016;2023-04-25T00:51:58;5;5;
56175;PMS5003;63065;51.082;17.016;2023-04-25T00:54:23;5;5;
56175;PMS5003;63065;51.082;17.016;2023-04-25T00:56:49;5;4;
56175;PMS5003;63065;51.082;17.016;2023-04-25T00:59:15;4;4;
56175;PMS5003;63065;51.082;17.016;2023-04-25T01:01:41;9;6;
56175;PMS5003;63065;51.082;17.016;2023-04-25T01:04:07;6;6;
56175;PMS5003;63065;51.082;17.016;2023-04-25T01:06:32;7;7;
56175;PMS5003;63065;51.082;17.016;2023-04-25T01:08:59;5;5;
56175;PMS5003;63065;51.082;17.016;2023-04-25T01:11:24;7;6;
56175;PMS5003;63065;51.082;17.016;2023-04-25T01:13:50;5;5;
56175;PMS5003;63065;51.082;17.016;2023-04-25T01:16:16;6;6;
56175;PMS5003;63065;51.082;17.016;2023-04-25T01:18:42;8;8;
56175;PMS5003;63065;51.082;17.016;2023-04-25T01:21:08;7;4;
56175;PMS5003;63065;51.082;17.016;2023-04-25T01:23:33;8;7;
56175;PMS5003;63065;51.082;17.016;2023-04-25T01:25:59;7;7;
56175;PMS5003;63065;51.082;17.016;2023-04-25T01:28:25;11;8;
56175;PMS5003;63065;51.082;17.016;2023-04-25T01:30:51;10;10;
56175;PMS5003;63065;51.082;17.016;2023-04-25T01:33:16;8;8;
56175;PMS5003;63065;51.082;17.016;2023-04-25T01:35:42;10;9;
56175;PMS5003;63065;51.082;17.016;2023-04-25T01:38:08;9;9;
56175;PMS5003;63065;51.082;17.016;2023-04-25T01:40:33;10;10;
56175;PMS5003;63065;51.082;17.016;2023-04-25T01:42:59;10;9;
56175;PMS5003;63065;51.082;17.016;2023-04-25T01:45:24;7;7;
56175;PMS5003;63065;51.082;17.016;2023-04-25T01:47:50;9;9;
56175;PMS5003;63065;51.082;17.016;2023-04-25T01:50:16;11;10;
56175;PMS5003;63065;51.082;17.016;2023-04-25T01:52:42;11;10;
56175;PMS5003;63065;51.082;17.016;2023-04-25T01:55:08;11;11;
56175;PMS5003;63065;51.082;17.016;2023-04-25T01:57:33;11;10;
56175;PMS5003;63065;51.082;17.016;2023-04-25T02:00:00;10;10;
56175;PMS5003;63065;51.082;17.016;2023-04-25T02:02:25;8;8;
56175;PMS5003;63065;51.082;17.016;2023-04-25T02:04:50;10;8;
56175;PMS5003;63065;51.082;17.016;2023-04-25T02:07:16;8;8;
56175;PMS5003;63065;51.082;17.016;2023-04-25T02:09:42;10;10;
56175;PMS5003;63065;51.082;17.016;2023-04-25T02:12:09;9;9;
56175;PMS5003;63065;51.082;17.016;2023-04-25T02:14:33;12;10;
56175;PMS5003;63065;51.082;17.016;2023-04-25T02:16:59;9;7;
56175;PMS5003;63065;51.082;17.016;2023-04-25T02:19:25;13;10;
56175;PMS5003;63065;51.082;17.016;2023-04-25T02:21:50;9;7;
56175;PMS5003;63065;51.082;17.016;2023-04-25T02:24:16;9;9;
56175;PMS5003;63065;51.082;17.016;2023-04-25T02:26:42;16;14;
56175;PMS5003;63065;51.082;17.016;2023-04-25T02:29:07;13;13;
56175;PMS5003;63065;51.082;17.016;2023-04-25T02:31:33;11;11;
56175;PMS5003;63065;51.082;17.016;2023-04-25T02:33:59;10;10;
56175;PMS5003;63065;51.082;17.016;2023-04-25T02:36:24;9;7;
56175;PMS5003;63065;51.082;17.016;2023-04-25T02:38:49;10;10;
56175;PMS5003;63065;51.082;17.016;2023-04-25T02:41:14;12;11;
56175;PMS5003;63065;51.082;17.016;2023-04-25T02:43:40;15;15;
56175;PMS5003;63065;51.082;17.016;2023-04-25T02:46:06;10;10;
56175;PMS5003;63065;51.082;17.016;2023-04-25T02:48:30;9;8;
56175;PMS5003;63065;51.082;17.016;2023-04-25T02:50:56;9;9;
56175;PMS5003;63065;51.082;17.016;2023-04-25T02:53:22;12;12;
56175;PMS5003;63065;51.082;17.016;2023-04-25T02:55:47;11;11;
56175;PMS5003;63065;51.082;17.016;2023-04-25T02:58:13;14;13;
56175;PMS5003;63065;51.082;17.016;2023-04-25T03:00:38;13;13;
56175;PMS5003;63065;51.082;17.016;2023-04-25T03:03:03;13;13;
56175;PMS5003;63065;51.082;17.016;2023-04-25T03:05:29;12;12;
56175;PMS5003;63065;51.082;17.016;2023-04-25T03:07:54;14;12;
56175;PMS5003;63065;51.082;17.016;2023-04-25T03:10:20;13;13;
56175;PMS5003;63065;51.082;17.016;2023-04-25T03:12:45;14;14;
56175;PMS5003;63065;51.082;17.016;2023-04-25T03:15:11;13;12;
56175;PMS5003;63065;51.082;17.016;2023-04-25T03:17:36;13;12;
56175;PMS5003;63065;51.082;17.016;2023-04-25T03:20:01;14;14;
56175;PMS5003;63065;51.082;17.016;2023-04-25T03:22:27;10;10;
56175;PMS5003;63065;51.082;17.016;2023-04-25T03:24:52;10;9;
56175;PMS5003;63065;51.082;17.016;2023-04-25T03:27:18;13;11;
56175;PMS5003;63065;51.082;17.016;2023-04-25T03:29:43;14;13;
56175;PMS5003;63065;51.082;17.016;2023-04-25T03:32:08;10;10;
56175;PMS5003;63065;51.082;17.016;2023-04-25T03:34:34;10;10;
56175;PMS5003;63065;51.082;17.016;2023-04-25T03:36:59;10;10;
56175;PMS5003;63065;51.082;17.016;2023-04-25T03:39:25;10;10;
56175;PMS5003;63065;51.082;17.016;2023-04-25T03:41:51;12;9;
56175;PMS5003;63065;51.082;17.016;2023-04-25T03:44:16;13;9;
56175;PMS5003;63065;51.082;17.016;2023-04-25T03:46:42;15;14;
56175;PMS5003;63065;51.082;17.016;2023-04-25T03:49:08;13;12;
56175;PMS5003;63065;51.082;17.016;2023-04-25T03:51:33;14;11;
56175;PMS5003;63065;51.082;17.016;2023-04-25T03:53:59;14;10;
56175;PMS5003;63065;51.082;17.016;2023-04-25T03:56:24;14;14;
56175;PMS5003;63065;51.082;17.016;2023-04-25T03:58:49;10;10;
56175;PMS5003;63065;51.082;17.016;2023-04-25T04:01:15;19;13;
56175;PMS5003;63065;51.082;17.016;2023-04-25T04:03:41;17;14;
56175;PMS5003;63065;51.082;17.016;2023-04-25T04:06:06;14;11;
56175;PMS5003;63065;51.082;17.016;2023-04-25T04:08:32;14;11;
56175;PMS5003;63065;51.082;17.016;2023-04-25T04:10:57;16;14;
56175;PMS5003;63065;51.082;17.016;2023-04-25T04:13:23;15;14;
56175;PMS5003;63065;51.082;17.016;2023-04-25T04:15:48;11;11;
56175;PMS5003;63065;51.082;17.016;2023-04-25T04:18:13;13;12;
56175;PMS5003;63065;51.082;17.016;2023-04-25T04:20:39;18;12;
56175;PMS5003;63065;51.082;17.016;2023-04-25T04:23:04;14;14;
56175;PMS5003;63065;51.082;17.016;2023-04-25T04:25:30;11;11;
56175;PMS5003;63065;51.082;17.016;2023-04-25T04:27:56;11;11;
56175;PMS5003;63065;51.082;17.016;2023-04-25T04:30:21;13;12;
56175;PMS5003;63065;51.082;17.016;2023-04-25T04:32:47;18;17;
56175;PMS5003;63065;51.082;17.016;2023-04-25T04:35:12;17;15;
56175;PMS5003;63065;51.082;17.016;2023-04-25T04:37:38;13;13;
56175;PMS5003;63065;51.082;17.016;2023-04-25T04:40:03;15;15;
56175;PMS5003;63065;51.082;17.016;2023-04-25T04:42:29;13;12;
56175;PMS5003;63065;51.082;17.016;2023-04-25T04:44:54;15;14;
56175;PMS5003;63065;51.082;17.016;2023-04-25T04:47:20;16;16;
56175;PMS5003;63065;51.082;17.016;2023-04-25T04:49:45;12;10;
56175;PMS5003;63065;51.082;17.016;2023-04-25T04:52:11;11;11;
56175;PMS5003;63065;51.082;17.016;2023-04-25T04:54:36;16;16;
56175;PMS5003;63065;51.082;17.016;2023-04-25T04:57:01;13;13;
56175;PMS5003;63065;51.082;17.016;2023-04-25T04:59:27;15;15;
56175;PMS5003;63065;51.082;17.016;2023-04-25T05:01:52;14;13;
56175;PMS5003;63065;51.082;17.016;2023-04-25T05:04:17;15;15;
56175;PMS5003;63065;51.082;17.016;2023-04-25T05:06:42;14;14;
56175;PMS5003;63065;51.082;17.016;2023-04-25T05:09:08;16;14;
56175;PMS5003;63065;51.082;17.016;2023-04-25T05:11:33;15;12;
56175;PMS5003;63065;51.082;17.016;2023-04-25T05:13:58;17;17;
56175;PMS5003;63065;51.082;17.016;2023-04-25T05:16:24;16;14;
56175;PMS5003;63065;51.082;17.016;2023-04-25T05:18:50;14;13;
56175;PMS5003;63065;51.082;17.016;2023-04-25T05:21:16;13;13;
56175;PMS5003;63065;51.082;17.016;2023-04-25T05:23:42;12;12;
56175;PMS5003;63065;51.082;17.016;2023-04-25T05:26:07;16;15;
56175;PMS5003;63065;51.082;17.016;2023-04-25T05:28:33;14;11;
56175;PMS5003;63065;51.082;17.016;2023-04-25T05:30:58;18;18;
56175;PMS5003;63065;51.082;17.016;2023-04-25T05:33:23;15;14;
56175;PMS5003;63065;51.082;17.016;2023-04-25T05:35:49;17;14;
56175;PMS5003;63065;51.082;17.016;2023-04-25T05:38:14;16;14;
56175;PMS5003;63065;51.082;17.016;2023-04-25T05:40:40;16;14;
56175;PMS5003;63065;51.082;17.016;2023-04-25T05:43:06;12;12;
56175;PMS5003;63065;51.082;17.016;2023-04-25T05:45:31;15;13;
56175;PMS5003;63065;51.082;17.016;2023-04-25T05:47:57;15;15;
56175;PMS5003;63065;51.082;17.016;2023-04-25T05:50:23;14;14;
56175;PMS5003;63065;51.082;17.016;2023-04-25T05:52:49;15;14;
56175;PMS5003;63065;51.082;17.016;2023-04-25T05:55:14;16;15;
56175;PMS5003;63065;51.082;17.016;2023-04-25T05:57:40;12;12;
56175;PMS5003;63065;51.082;17.016;2023-04-25T06:00:06;15;11;
56175;PMS5003;63065;51.082;17.016;2023-04-25T06:02:31;14;14;
56175;PMS5003;63065;51.082;17.016;2023-04-25T06:04:57;11;9;
56175;PMS5003;63065;51.082;17.016;2023-04-25T06:07:22;17;14;
56175;PMS5003;63065;51.082;17.016;2023-04-25T06:09:47;17;16;
56175;PMS5003;63065;51.082;17.016;2023-04-25T06:12:13;13;13;
56175;PMS5003;63065;51.082;17.016;2023-04-25T06:14:38;14;13;
56175;PMS5003;63065;51.082;17.016;2023-04-25T06:17:04;15;13;
56175;PMS5003;63065;51.082;17.016;2023-04-25T06:19:30;13;13;
56175;PMS5003;63065;51.082;17.016;2023-04-25T06:21:55;14;14;
56175;PMS5003;63065;51.082;17.016;2023-04-25T06:24:21;13;12;
56175;PMS5003;63065;51.082;17.016;2023-04-25T06:26:47;10;10;
56175;PMS5003;63065;51.082;17.016;2023-04-25T06:29:12;10;9;
56175;PMS5003;63065;51.082;17.016;2023-04-25T06:31:37;12;12;
56175;PMS5003;63065;51.082;17.016;2023-04-25T06:34:03;18;17;
56175;PMS5003;63065;51.082;17.016;2023-04-25T06:36:28;13;13;
56175;PMS5003;63065;51.082;17.016;2023-04-25T06:38:53;14;11;
56175;PMS5003;63065;51.082;17.016;2023-04-25T06:41:18;11;11;
56175;PMS5003;63065;51.082;17.016;2023-04-25T06:43:44;10;10;
56175;PMS5003;63065;51.082;17.016;2023-04-25T06:46:10;12;11;
56175;PMS5003;63065;51.082;17.016;2023-04-25T06:48:35;13;13;
56175;PMS5003;63065;51.082;17.016;2023-04-25T06:51:01;15;13;
56175;PMS5003;63065;51.082;17.016;2023-04-25T06:53:27;13;13;
56175;PMS5003;63065;51.082;17.016;2023-04-25T06:55:53;12;12;
56175;PMS5003;63065;51.082;17.016;2023-04-25T06:58:18;12;12;
56175;PMS5003;63065;51.082;17.016;2023-04-25T07:00:43;8;8;
56175;PMS5003;63065;51.082;17.016;2023-04-25T07:03:09;8;8;
56175;PMS5003;63065;51.082;17.016;2023-04-25T07:05:35;9;9;
56175;PMS5003;63065;51.082;17.016;2023-04-25T07:08:00;10;10;
56175;PMS5003;63065;51.082;17.016;2023-04-25T07:10:26;12;11;
56175;PMS5003;63065;51.082;17.016;2023-04-25T07:12:51;11;8;
56175;PMS5003;63065;51.082;17.016;2023-04-25T07:15:16;6;6;
56175;PMS5003;63065;51.082;17.016;2023-04-25T07:17:42;6;6;
56175;PMS5003;63065;51.082;17.016;2023-04-25T07:20:08;9;9;
56175;PMS5003;63065;51.082;17.016;2023-04-25T07:22:33;12;11;
56175;PMS5003;63065;51.082;17.016;2023-04-25T07:24:58;8;8;
56175;PMS5003;63065;51.082;17.016;2023-04-25T07:27:24;9;7;
56175;PMS5003;63065;51.082;17.016;2023-04-25T07:29:50;10;9;
56175;PMS5003;63065;51.082;17.016;2023-04-25T07:32:16;12;9;
56175;PMS5003;63065;51.082;17.016;2023-04-25T07:34:41;10;10;
56175;PMS5003;63065;51.082;17.016;2023-04-25T07:37:07;10;8;
56175;PMS5003;63065;51.082;17.016;2023-04-25T07:39:33;9;8;
56175;PMS5003;63065;51.082;17.016;2023-04-25T07:41:59;6;6;
56175;PMS5003;63065;51.082;17.016;2023-04-25T07:44:24;9;9;
56175;PMS5003;63065;51.082;17.016;2023-04-25T07:46:50;10;10;
56175;PMS5003;63065;51.082;17.016;2023-04-25T07:49:15;13;10;
56175;PMS5003;63065;51.082;17.016;2023-04-25T07:51:41;11;9;
56175;PMS5003;63065;51.082;17.016;2023-04-25T07:54:07;7;7;
56175;PMS5003;63065;51.082;17.016;2023-04-25T07:56:32;13;12;
56175;PMS5003;63065;51.082;17.016;2023-04-25T07:58:58;10;10;
56175;PMS5003;63065;51.082;17.016;2023-04-25T08:01:24;12;12;
56175;PMS5003;63065;51.082;17.016;2023-04-25T08:03:50;10;10;
56175;PMS5003;63065;51.082;17.016;2023-04-25T08:06:15;15;13;
56175;PMS5003;63065;51.082;17.016;2023-04-25T08:08:40;13;11;
56175;PMS5003;63065;51.082;17.016;2023-04-25T08:11:06;13;13;
56175;PMS5003;63065;51.082;17.016;2023-04-25T08:13:31;16;16;
56175;PMS5003;63065;51.082;17.016;2023-04-25T08:15:57;18;15;
56175;PMS5003;63065;51.082;17.016;2023-04-25T08:18:22;15;13;
56175;PMS5003;63065;51.082;17.016;2023-04-25T08:20:48;16;15;
56175;PMS5003;63065;51.082;17.016;2023-04-25T08:23:13;19;16;
56175;PMS5003;63065;51.082;17.016;2023-04-25T08:25:39;18;17;
56175;PMS5003;63065;51.082;17.016;2023-04-25T08:28:05;16;16;
56175;PMS5003;63065;51.082;17.016;2023-04-25T08:30:30;19;18;
56175;PMS5003;63065;51.082;17.016;2023-04-25T08:32:55;22;18;
56175;PMS5003;63065;51.082;17.016;2023-04-25T08:35:20;19;18;
56175;PMS5003;63065;51.082;17.016;2023-04-25T08:37:45;21;19;
56175;PMS5003;63065;51.082;17.016;2023-04-25T08:40:11;20;18;
56175;PMS5003;63065;51.082;17.016;2023-04-25T08:42:36;15;13;
56175;PMS5003;63065;51.082;17.016;2023-04-25T08:45:02;23;18;
56175;PMS5003;63065;51.082;17.016;2023-04-25T08:47:28;20;19;
56175;PMS5003;63065;51.082;17.016;2023-04-25T08:49:53;16;16;
56175;PMS5003;63065;51.082;17.016;2023-04-25T08:52:20;21;21;
56175;PMS5003;63065;51.082;17.016;2023-04-25T08:54:44;22;22;
56175;PMS5003;63065;51.082;17.016;2023-04-25T08:57:09;21;19;
56175;PMS5003;63065;51.082;17.016;2023-04-25T08:59:35;19;19;
56175;PMS5003;63065;51.082;17.016;2023-04-25T09:02:01;19;17;
56175;PMS5003;63065;51.082;17.016;2023-04-25T09:04:26;20;17;
56175;PMS5003;63065;51.082;17.016;2023-04-25T09:06:51;18;16;
56175;PMS5003;63065;51.082;17.016;2023-04-25T09:09:17;19;19;
56175;PMS5003;63065;51.082;17.016;2023-04-25T09:11:42;21;20;
56175;PMS5003;63065;51.082;17.016;2023-04-25T09:14:10;17;14;
56175;PMS5003;63065;51.082;17.016;2023-04-25T09:16:34;21;21;
56175;PMS5003;63065;51.082;17.016;2023-04-25T09:19:00;17;17;
56175;PMS5003;63065;51.082;17.016;2023-04-25T09:21:26;19;19;
56175;PMS5003;63065;51.082;17.016;2023-04-25T09:23:51;20;20;
56175;PMS5003;63065;51.082;17.016;2023-04-25T09:26:18;21;21;
56175;PMS5003;63065;51.082;17.016;2023-04-25T09:28:42;21;21;
56175;PMS5003;63065;51.082;17.016;2023-04-25T09:31:09;17;16;
56175;PMS5003;63065;51.082;17.016;2023-04-25T09:33:33;13;13;
56175;PMS5003;63065;51.082;17.016;2023-04-25T09:36:01;16;14;
56175;PMS5003;63065;51.082;17.016;2023-04-25T09:38:24;11;11;
56175;PMS5003;63065;51.082;17.016;2023-04-25T09:40:51;15;15;
56175;PMS5003;63065;51.082;17.016;2023-04-25T09:43:19;16;16;
56175;PMS5003;63065;51.082;17.016;2023-04-25T09:45:41;20;18;
56175;PMS5003;63065;51.082;17.016;2023-04-25T09:48:07;21;20;
56175;PMS5003;63065;51.082;17.016;2023-04-25T09:50:33;16;14;
56175;PMS5003;63065;51.082;17.016;2023-04-25T09:53:03;14;14;
56175;PMS5003;63065;51.082;17.016;2023-04-25T09:55:24;21;21;
56175;PMS5003;63065;51.082;17.016;2023-04-25T09:57:49;20;20;
56175;PMS5003;63065;51.082;17.016;2023-04-25T10:00:15;17;15;
56175;PMS5003;63065;51.082;17.016;2023-04-25T10:02:40;25;22;
56175;PMS5003;63065;51.082;17.016;2023-04-25T10:05:06;18;16;
56175;PMS5003;63065;51.082;17.016;2023-04-25T10:07:31;19;19;
56175;PMS5003;63065;51.082;17.016;2023-04-25T10:09:58;21;19;
56175;PMS5003;63065;51.082;17.016;2023-04-25T10:12:22;19;19;
56175;PMS5003;63065;51.082;17.016;2023-04-25T10:14:47;18;18;
56175;PMS5003;63065;51.082;17.016;2023-04-25T10:17:12;20;20;
56175;PMS5003;63065;51.082;17.016;2023-04-25T10:19:38;19;19;
56175;PMS5003;63065;51.082;17.016;2023-04-25T10:22:05;16;16;
56175;PMS5003;63065;51.082;17.016;2023-04-25T10:24:29;19;19;
56175;PMS5003;63065;51.082;17.016;2023-04-25T10:26:55;22;22;
56175;PMS5003;63065;51.082;17.016;2023-04-25T10:29:22;18;17;
56175;PMS5003;63065;51.082;17.016;2023-04-25T10:31:46;16;15;
56175;PMS5003;63065;51.082;17.016;2023-04-25T10:34:11;15;15;
56175;PMS5003;63065;51.082;17.016;2023-04-25T10:36:37;15;15;
56175;PMS5003;63065;51.082;17.016;2023-04-25T10:39:03;14;14;
56175;PMS5003;63065;51.082;17.016;2023-04-25T10:41:28;15;15;
56175;PMS5003;63065;51.082;17.016;2023-04-25T10:43:59;14;13;
56175;PMS5003;63065;51.082;17.016;2023-04-25T10:46:22;14;14;
56175;PMS5003;63065;51.082;17.016;2023-04-25T10:48:47;13;12;
56175;PMS5003;63065;51.082;17.016;2023-04-25T10:51:12;15;13;
56175;PMS5003;63065;51.082;17.016;2023-04-25T10:53:37;14;12;
56175;PMS5003;63065;51.082;17.016;2023-04-25T10:58:28;14;14;
56175;PMS5003;63065;51.082;17.016;2023-04-25T11:00:53;18;16;
56175;PMS5003;63065;51.082;17.016;2023-04-25T11:03:21;11;11;
56175;PMS5003;63065;51.082;17.016;2023-04-25T11:05:45;10;10;
56175;PMS5003;63065;51.082;17.016;2023-04-25T11:08:11;12;10;
56175;PMS5003;63065;51.082;17.016;2023-04-25T11:10:36;10;10;
56175;PMS5003;63065;51.082;17.016;2023-04-25T11:13:02;10;10;
56175;PMS5003;63065;51.082;17.016;2023-04-25T11:15:28;12;12;
56175;PMS5003;63065;51.082;17.016;2023-04-25T11:17:54;11;11;
56175;PMS5003;63065;51.082;17.016;2023-04-25T11:20:20;10;10;
56175;PMS5003;63065;51.082;17.016;2023-04-25T11:22:46;11;11;
56175;PMS5003;63065;51.082;17.016;2023-04-25T11:25:13;9;9;
56175;PMS5003;63065;51.082;17.016;2023-04-25T11:27:37;10;9;
56175;PMS5003;63065;51.082;17.016;2023-04-25T11:32:29;7;7;
56175;PMS5003;63065;51.082;17.016;2023-04-25T11:34:55;10;9;
56175;PMS5003;63065;51.082;17.016;2023-04-25T11:37:21;9;9;
56175;PMS5003;63065;51.082;17.016;2023-04-25T11:39:47;6;6;
56175;PMS5003;63065;51.082;17.016;2023-04-25T11:42:12;7;6;
56175;PMS5003;63065;51.082;17.016;2023-04-25T11:44:38;7;7;
56175;PMS5003;63065;51.082;17.016;2023-04-25T11:47:04;8;8;
56175;PMS5003;63065;51.082;17.016;2023-04-25T11:49:30;7;7;
56175;PMS5003;63065;51.082;17.016;2023-04-25T11:51:56;7;6;
56175;PMS5003;63065;51.082;17.016;2023-04-25T11:54:21;8;7;
56175;PMS5003;63065;51.082;17.016;2023-04-25T11:56:47;6;6;
56175;PMS5003;63065;51.082;17.016;2023-04-25T11:59:12;5;5;
56175;PMS5003;63065;51.082;17.016;2023-04-25T12:01:39;8;6;
56175;PMS5003;63065;51.082;17.016;2023-04-25T12:06:30;7;5;
56175;PMS5003;63065;51.082;17.016;2023-04-25T12:09:00;6;6;
56175;PMS5003;63065;51.082;17.016;2023-04-25T12:11:21;6;6;
56175;PMS5003;63065;51.082;17.016;2023-04-25T12:13:51;7;7;
56175;PMS5003;63065;51.082;17.016;2023-04-25T12:16:13;9;9;
56175;PMS5003;63065;51.082;17.016;2023-04-25T12:18:39;8;6;
56175;PMS5003;63065;51.082;17.016;2023-04-25T12:21:04;5;5;
56175;PMS5003;63065;51.082;17.016;2023-04-25T12:23:30;7;7;
56175;PMS5003;63065;51.082;17.016;2023-04-25T12:25:56;7;7;
56175;PMS5003;63065;51.082;17.016;2023-04-25T12:28:22;5;5;
56175;PMS5003;63065;51.082;17.016;2023-04-25T12:33:14;6;5;
56175;PMS5003;63065;51.082;17.016;2023-04-25T12:35:39;7;7;
56175;PMS5003;63065;51.082;17.016;2023-04-25T12:38:05;6;6;
56175;PMS5003;63065;51.082;17.016;2023-04-25T12:40:31;5;5;
56175;PMS5003;63065;51.082;17.016;2023-04-25T12:42:56;6;6;
56175;PMS5003;63065;51.082;17.016;2023-04-25T12:45:22;6;5;
56175;PMS5003;63065;51.082;17.016;2023-04-25T12:47:48;5;5;
56175;PMS5003;63065;51.082;17.016;2023-04-25T12:50:14;6;6;
56175;PMS5003;63065;51.082;17.016;2023-04-25T12:52:39;7;7;
56175;PMS5003;63065;51.082;17.016;2023-04-25T12:55:06;6;6;
56175;PMS5003;63065;51.082;17.016;2023-04-25T12:57:31;6;6;
56175;PMS5003;63065;51.082;17.016;2023-04-25T12:59:57;5;5;
56175;PMS5003;63065;51.082;17.016;2023-04-25T13:02:23;6;6;
56175;PMS5003;63065;51.082;17.016;2023-04-25T13:04:48;6;6;
56175;PMS5003;63065;51.082;17.016;2023-04-25T13:07:14;5;5;
56175;PMS5003;63065;51.082;17.016;2023-04-25T13:09:40;6;6;
56175;PMS5003;63065;51.082;17.016;2023-04-25T13:12:06;7;7;
56175;PMS5003;63065;51.082;17.016;2023-04-25T13:14:32;7;6;
56175;PMS5003;63065;51.082;17.016;2023-04-25T13:16:57;9;7;
56175;PMS5003;63065;51.082;17.016;2023-04-25T13:19:23;6;5;
56175;PMS5003;63065;51.082;17.016;2023-04-25T13:21:49;6;6;
56175;PMS5003;63065;51.082;17.016;2023-04-25T13:24:15;6;6;
56175;PMS5003;63065;51.082;17.016;2023-04-25T13:26:40;6;6;
56175;PMS5003;63065;51.082;17.016;2023-04-25T13:29:06;8;7;
56175;PMS5003;63065;51.082;17.016;2023-04-25T13:31:32;11;10;
56175;PMS5003;63065;51.082;17.016;2023-04-25T13:33:58;7;5;
56175;PMS5003;63065;51.082;17.016;2023-04-25T13:36:24;8;8;
56175;PMS5003;63065;51.082;17.016;2023-04-25T13:38:49;6;6;
56175;PMS5003;63065;51.082;17.016;2023-04-25T13:41:14;7;7;
56175;PMS5003;63065;51.082;17.016;2023-04-25T13:43:40;11;7;
56175;PMS5003;63065;51.082;17.016;2023-04-25T13:46:06;7;7;
56175;PMS5003;63065;51.082;17.016;2023-04-25T13:48:32;7;6;
56175;PMS5003;63065;51.082;17.016;2023-04-25T13:50:57;6;6;
56175;PMS5003;63065;51.082;17.016;2023-04-25T13:53:23;6;6;
56175;PMS5003;63065;51.082;17.016;2023-04-25T13:55:49;8;8;
56175;PMS5003;63065;51.082;17.016;2023-04-25T13:58:15;6;6;
56175;PMS5003;63065;51.082;17.016;2023-04-25T14:00:41;5;5;
56175;PMS5003;63065;51.082;17.016;2023-04-25T14:03:06;8;7;
56175;PMS5003;63065;51.082;17.016;2023-04-25T14:05:33;6;6;
56175;PMS5003;63065;51.082;17.016;2023-04-25T14:07:58;7;4;
56175;PMS5003;63065;51.082;17.016;2023-04-25T14:10:24;5;5;
56175;PMS5003;63065;51.082;17.016;2023-04-25T14:12:50;3;3;
56175;PMS5003;63065;51.082;17.016;2023-04-25T14:15:16;5;5;
56175;PMS5003;63065;51.082;17.016;2023-04-25T14:17:41;6;6;
56175;PMS5003;63065;51.082;17.016;2023-04-25T14:20:08;5;5;
56175;PMS5003;63065;51.082;17.016;2023-04-25T14:22:33;7;7;
56175;PMS5003;63065;51.082;17.016;2023-04-25T14:24:58;6;5;
56175;PMS5003;63065;51.082;17.016;2023-04-25T14:27:24;7;7;
56175;PMS5003;63065;51.082;17.016;2023-04-25T14:29:50;7;5;
56175;PMS5003;63065;51.082;17.016;2023-04-25T14:32:16;7;5;
56175;PMS5003;63065;51.082;17.016;2023-04-25T14:34:41;4;4;
56175;PMS5003;63065;51.082;17.016;2023-04-25T14:37:07;5;5;
56175;PMS5003;63065;51.082;17.016;2023-04-25T14:39:33;5;5;
56175;PMS5003;63065;51.082;17.016;2023-04-25T14:41:59;6;6;
56175;PMS5003;63065;51.082;17.016;2023-04-25T14:44:25;7;5;
56175;PMS5003;63065;51.082;17.016;2023-04-25T14:46:51;7;5;
56175;PMS5003;63065;51.082;17.016;2023-04-25T14:49:16;2;2;
56175;PMS5003;63065;51.082;17.016;2023-04-25T14:51:42;6;6;
56175;PMS5003;63065;51.082;17.016;2023-04-25T14:54:07;4;4;
56175;PMS5003;63065;51.082;17.016;2023-04-25T14:56:33;8;7;
56175;PMS5003;63065;51.082;17.016;2023-04-25T14:58:59;5;5;
56175;PMS5003;63065;51.082;17.016;2023-04-25T15:01:25;6;5;
56175;PMS5003;63065;51.082;17.016;2023-04-25T15:03:51;7;7;
56175;PMS5003;63065;51.082;17.016;2023-04-25T15:06:17;9;9;
56175;PMS5003;63065;51.082;17.016;2023-04-25T15:08:42;7;7;
56175;PMS5003;63065;51.082;17.016;2023-04-25T15:11:08;7;7;
56175;PMS5003;63065;51.082;17.016;2023-04-25T15:13:34;6;6;
56175;PMS5003;63065;51.082;17.016;2023-04-25T15:15:59;8;8;
56175;PMS5003;63065;51.082;17.016;2023-04-25T15:18:25;5;5;
56175;PMS5003;63065;51.082;17.016;2023-04-25T15:20:51;9;8;
56175;PMS5003;63065;51.082;17.016;2023-04-25T15:23:17;6;6;
56175;PMS5003;63065;51.082;17.016;2023-04-25T15:25:42;6;6;
56175;PMS5003;63065;51.082;17.016;2023-04-25T15:28:08;8;8;
56175;PMS5003;63065;51.082;17.016;2023-04-25T15:30:34;5;5;
56175;PMS5003;63065;51.082;17.016;2023-04-25T15:33:00;8;8;
56175;PMS5003;63065;51.082;17.016;2023-04-25T15:35:26;7;7;
56175;PMS5003;63065;51.082;17.016;2023-04-25T15:37:52;4;4;
56175;PMS5003;63065;51.082;17.016;2023-04-25T15:40:17;7;7;
56175;PMS5003;63065;51.082;17.016;2023-04-25T15:42:43;6;6;
56175;PMS5003;63065;51.082;17.016;2023-04-25T15:45:09;9;9;
56175;PMS5003;63065;51.082;17.016;2023-04-25T15:47:35;8;8;
56175;PMS5003;63065;51.082;17.016;2023-04-25T15:49:59;11;11;
56175;PMS5003;63065;51.082;17.016;2023-04-25T15:52:25;8;8;
56175;PMS5003;63065;51.082;17.016;2023-04-25T15:54:51;8;8;
56175;PMS5003;63065;51.082;17.016;2023-04-25T15:57:17;14;11;
56175;PMS5003;63065;51.082;17.016;2023-04-25T15:59:42;12;10;
56175;PMS5003;63065;51.082;17.016;2023-04-25T16:02:08;12;12;
56175;PMS5003;63065;51.082;17.016;2023-04-25T16:04:34;12;10;
56175;PMS5003;63065;51.082;17.016;2023-04-25T16:06:59;9;9;
56175;PMS5003;63065;51.082;17.016;2023-04-25T16:09:25;10;10;
56175;PMS5003;63065;51.082;17.016;2023-04-25T16:11:51;12;9;
56175;PMS5003;63065;51.082;17.016;2023-04-25T16:14:16;11;11;
56175;PMS5003;63065;51.082;17.016;2023-04-25T16:16:42;11;10;